createdAt,value
2018-06-09T00:01:55.169Z,19.30
2018-06-09T00:04:23.763Z,19.30
2018-06-09T00:06:52.434Z,19.30
2018-06-09T00:09:20.990Z,19.40
2018-06-09T00:14:18.805Z,19.40
2018-06-09T00:16:48.106Z,19.30
2018-06-09T00:19:16.646Z,19.20
2018-06-09T00:24:13.378Z,19.20
2018-06-09T00:26:42.068Z,19.20
2018-06-09T00:29:10.851Z,19.30
2018-06-09T00:31:40.760Z,19.30
2018-06-09T00:34:09.333Z,19.20
2018-06-09T00:36:38.020Z,19.00
2018-06-09T00:39:07.932Z,19.10
2018-06-09T00:41:36.468Z,19.10
2018-06-09T00:44:05.130Z,19.20
2018-06-09T00:46:33.724Z,19.20
2018-06-09T00:49:03.201Z,19.20
2018-06-09T00:51:33.342Z,19.20
2018-06-09T00:54:02.670Z,19.20
2018-06-09T00:56:43.563Z,19.30
2018-06-09T00:59:47.371Z,19.30
2018-06-09T01:02:15.912Z,19.30
2018-06-09T01:04:44.376Z,19.20
2018-06-09T01:07:12.953Z,19.10
2018-06-09T01:09:41.594Z,19.10
2018-06-09T01:12:10.412Z,19.20
2018-06-09T01:14:39.065Z,19.20
2018-06-09T01:17:08.483Z,19.20
2018-06-09T01:19:37.418Z,19.20
2018-06-09T01:22:06.089Z,19.10
2018-06-09T01:24:34.731Z,19.10
2018-06-09T01:27:03.199Z,19.10
2018-06-09T01:29:31.873Z,19.10
2018-06-09T01:32:00.968Z,19.10
2018-06-09T01:34:30.123Z,19.00
2018-06-09T01:36:59.230Z,19.10
2018-06-09T01:39:27.808Z,19.10
2018-06-09T01:41:57.401Z,19.10
2018-06-09T01:44:25.990Z,19.00
2018-06-09T01:46:54.776Z,19.00
2018-06-09T01:49:24.052Z,18.90
2018-06-09T01:51:52.589Z,18.80
2018-06-09T01:54:21.093Z,18.70
2018-06-09T01:56:49.658Z,18.70
2018-06-09T01:59:19.528Z,18.70
2018-06-09T02:01:48.003Z,18.70
2018-06-09T02:04:16.887Z,18.60
2018-06-09T02:06:45.467Z,18.60
2018-06-09T02:09:13.884Z,18.60
2018-06-09T02:11:42.461Z,18.70
2018-06-09T02:14:10.997Z,18.70
2018-06-09T02:16:39.551Z,18.80
2018-06-09T02:19:08.115Z,18.80
2018-06-09T02:21:36.670Z,18.80
2018-06-09T02:24:05.158Z,18.70
2018-06-09T02:26:33.718Z,18.70
2018-06-09T02:29:02.379Z,18.70
2018-06-09T02:31:30.894Z,18.80
2018-06-09T02:33:59.439Z,18.80
2018-06-09T02:36:27.986Z,18.80
2018-06-09T02:38:56.563Z,18.80
2018-06-09T02:41:25.141Z,18.80
2018-06-09T02:43:53.719Z,18.80
2018-06-09T02:46:22.266Z,18.80
2018-06-09T02:48:50.773Z,18.80
2018-06-09T02:51:19.386Z,18.70
2018-06-09T02:53:47.917Z,18.70
2018-06-09T02:58:44.743Z,18.70
2018-06-09T03:01:13.258Z,18.60
2018-06-09T03:03:41.926Z,18.60
2018-06-09T03:08:38.753Z,18.60
2018-06-09T03:11:07.257Z,18.50
2018-06-09T03:13:35.928Z,18.50
2018-06-09T03:16:04.514Z,18.50
2018-06-09T03:18:33.007Z,18.50
2018-06-09T03:21:01.546Z,18.50
2018-06-09T03:23:30.050Z,18.50
2018-06-09T03:25:58.624Z,18.50
2018-06-09T03:28:27.355Z,18.50
2018-06-09T03:30:56.006Z,18.50
2018-06-09T03:33:24.527Z,18.50
2018-06-09T03:35:53.220Z,18.50
2018-06-09T03:38:21.669Z,18.40
2018-06-09T03:43:18.579Z,18.40
2018-06-09T03:45:47.108Z,18.40
2018-06-09T03:48:15.764Z,18.40
2018-06-09T03:50:44.445Z,18.40
2018-06-09T03:53:12.972Z,18.50
2018-06-09T03:55:41.762Z,18.50
2018-06-09T03:58:10.195Z,18.50
2018-06-09T04:00:38.794Z,18.50
2018-06-09T04:03:07.396Z,18.50
2018-06-09T04:05:35.812Z,18.50
2018-06-09T04:10:32.839Z,18.40
2018-06-09T04:13:01.307Z,18.40
2018-06-09T04:15:29.843Z,18.50
2018-06-09T04:17:58.253Z,18.50
2018-06-09T04:20:27.531Z,18.60
2018-06-09T04:22:56.045Z,18.60
2018-06-09T04:25:24.571Z,18.60
2018-06-09T04:27:53.109Z,18.70
2018-06-09T04:30:21.655Z,18.70
2018-06-09T04:32:50.191Z,18.60
2018-06-09T04:35:18.742Z,18.60
2018-06-09T04:37:47.201Z,18.60
2018-06-09T04:40:15.722Z,18.60
2018-06-09T04:42:44.285Z,18.70
2018-06-09T04:45:12.957Z,18.70
2018-06-09T04:47:41.741Z,18.70
2018-06-09T04:50:11.002Z,18.60
2018-06-09T04:52:39.526Z,18.60
2018-06-09T04:55:08.110Z,18.60
2018-06-09T04:57:36.773Z,18.80
2018-06-09T05:00:05.634Z,18.90
2018-06-09T05:02:34.192Z,19.10
2018-06-09T05:05:02.810Z,19.10
2018-06-09T05:07:31.307Z,19.20
2018-06-09T05:10:00.535Z,19.30
2018-06-09T05:12:29.003Z,19.40
2018-06-09T05:14:57.491Z,19.50
2018-06-09T05:17:26.154Z,19.50
2018-06-09T05:19:54.685Z,19.60
2018-06-09T05:22:23.309Z,19.70
2018-06-09T05:24:51.813Z,19.80
2018-06-09T05:29:48.429Z,20.00
2018-06-09T05:32:16.880Z,19.90
2018-06-09T05:34:45.335Z,20.00
2018-06-09T05:37:13.819Z,19.80
2018-06-09T05:39:42.393Z,19.80
2018-06-09T05:42:10.863Z,19.90
2018-06-09T05:44:39.341Z,20.10
2018-06-09T05:49:36.754Z,20.30
2018-06-09T05:52:05.501Z,20.30
2018-06-09T05:54:33.975Z,20.10
2018-06-09T05:57:02.601Z,20.10
2018-06-09T05:59:31.077Z,20.00
2018-06-09T06:01:59.646Z,20.10
2018-06-09T06:06:56.795Z,20.30
2018-06-09T06:09:25.386Z,20.30
2018-06-09T06:11:53.963Z,20.40
2018-06-09T06:14:22.411Z,20.60
2018-06-09T06:16:51.664Z,20.70
2018-06-09T06:19:20.106Z,20.90
2018-06-09T06:21:48.590Z,21.00
2018-06-09T06:24:17.072Z,20.90
2018-06-09T06:26:45.541Z,21.00
2018-06-09T06:29:13.992Z,21.10
2018-06-09T06:31:42.528Z,21.20
2018-06-09T06:34:11.017Z,21.30
2018-06-09T06:39:09.322Z,21.20
2018-06-09T06:41:38.062Z,21.30
2018-06-09T06:44:06.746Z,21.30
2018-06-09T06:46:36.038Z,21.40
2018-06-09T06:49:04.662Z,21.70
2018-06-09T06:51:33.203Z,21.90
2018-06-09T06:54:01.896Z,21.90
2018-06-09T06:56:30.406Z,22.10
2018-06-09T06:58:59.316Z,22.30
2018-06-09T07:01:27.817Z,22.20
2018-06-09T07:03:56.563Z,22.20
2018-06-09T07:06:25.008Z,22.30
2018-06-09T07:08:54.348Z,22.30
2018-06-09T07:11:23.228Z,22.30
2018-06-09T07:13:51.664Z,22.20
2018-06-09T07:16:20.312Z,22.20
2018-06-09T07:18:54.208Z,22.50
2018-06-09T07:21:22.708Z,22.70
2018-06-09T07:23:51.236Z,22.90
2018-06-09T07:26:20.998Z,23.10
2018-06-09T07:28:49.470Z,23.30
2018-06-09T07:31:17.902Z,23.60
2018-06-09T07:33:46.397Z,23.70
2018-06-09T07:36:15.182Z,23.30
2018-06-09T07:38:43.632Z,23.00
2018-06-09T07:43:40.346Z,23.20
2018-06-09T07:46:09.692Z,23.40
2018-06-09T07:48:38.237Z,23.50
2018-06-09T07:51:06.736Z,23.50
2018-06-09T07:53:35.189Z,23.50
2018-06-09T07:56:03.702Z,23.80
2018-06-09T08:01:00.382Z,24.20
2018-06-09T08:03:28.959Z,24.90
2018-06-09T08:05:57.574Z,25.30
2018-06-09T08:08:26.031Z,25.50
2018-06-09T08:10:54.515Z,25.70
2018-06-09T08:13:23.008Z,25.50
2018-06-09T08:15:51.505Z,25.40
2018-06-09T08:18:19.950Z,25.10
2018-06-09T08:20:48.448Z,25.10
2018-06-09T08:23:16.997Z,24.80
2018-06-09T08:25:45.475Z,24.90
2018-06-09T08:28:13.937Z,25.10
2018-06-09T08:30:49.043Z,25.80
2018-06-09T08:33:17.702Z,26.50
2018-06-09T08:38:14.593Z,27.60
2018-06-09T08:40:43.147Z,28.10
2018-06-09T08:43:11.691Z,28.20
2018-06-09T08:45:40.490Z,27.50
2018-06-09T08:48:09.705Z,27.10
2018-06-09T08:50:38.307Z,26.80
2018-06-09T08:53:06.924Z,26.50
2018-06-09T08:55:35.714Z,26.40
2018-06-09T08:58:04.274Z,26.50
2018-06-09T09:00:33.042Z,27.10
2018-06-09T09:03:01.684Z,27.40
2018-06-09T09:05:30.179Z,27.70
2018-06-09T09:07:58.790Z,28.30
2018-06-09T09:10:27.456Z,28.40
2018-06-09T09:12:55.990Z,27.80
2018-06-09T09:15:24.443Z,28.40
2018-06-09T09:17:53.135Z,28.40
2018-06-09T09:20:21.739Z,28.60
2018-06-09T09:22:50.474Z,28.10
2018-06-09T09:25:18.999Z,28.70
2018-06-09T09:27:47.446Z,29.00
2018-06-09T09:30:15.907Z,29.30
2018-06-09T09:32:44.435Z,29.20
2018-06-09T09:37:41.285Z,29.50
2018-06-09T09:40:09.853Z,29.30
2018-06-09T09:42:38.810Z,29.60
2018-06-09T09:45:07.377Z,29.70
2018-06-09T09:47:36.048Z,29.70
2018-06-09T09:50:04.770Z,29.50
2018-06-09T09:52:33.276Z,28.80
2018-06-09T09:55:01.753Z,29.30
2018-06-09T09:57:30.231Z,29.70
2018-06-09T09:59:58.728Z,29.20
2018-06-09T10:02:27.209Z,29.00
2018-06-09T10:04:55.764Z,28.60
2018-06-09T10:07:24.286Z,28.90
2018-06-09T10:09:52.781Z,28.90
2018-06-09T10:12:21.279Z,28.60
2018-06-09T10:14:49.754Z,28.60
2018-06-09T10:17:18.258Z,28.50
2018-06-09T10:19:46.825Z,28.60
2018-06-09T10:22:15.399Z,28.60
2018-06-09T10:24:44.152Z,28.40
2018-06-09T10:27:12.620Z,29.20
2018-06-09T10:32:09.337Z,30.60
2018-06-09T10:34:38.818Z,30.70
2018-06-09T10:37:07.462Z,30.50
2018-06-09T10:39:36.004Z,30.20
2018-06-09T10:42:04.558Z,29.90
2018-06-09T10:44:33.039Z,30.20
2018-06-09T10:47:01.577Z,30.00
2018-06-09T10:49:30.058Z,29.00
2018-06-09T10:51:58.697Z,28.90
2018-06-09T10:54:27.295Z,28.70
2018-06-09T10:56:55.742Z,28.60
2018-06-09T10:59:24.269Z,28.20
2018-06-09T11:01:52.961Z,28.20
2018-06-09T11:04:21.421Z,28.20
2018-06-09T11:06:49.922Z,28.80
2018-06-09T11:09:18.371Z,29.10
2018-06-09T11:11:46.836Z,29.40
2018-06-09T11:14:16.020Z,29.50
2018-06-09T11:16:44.494Z,29.60
2018-06-09T11:19:13.025Z,29.20
2018-06-09T11:21:41.535Z,28.70
2018-06-09T11:24:09.999Z,29.10
2018-06-09T11:26:38.470Z,29.00
2018-06-09T11:29:07.019Z,29.90
2018-06-09T11:31:35.523Z,30.30
2018-06-09T11:34:03.985Z,30.10
2018-06-09T11:36:32.466Z,29.60
2018-06-09T11:39:00.910Z,30.30
2018-06-09T11:41:29.474Z,29.60
2018-06-09T11:43:58.137Z,29.10
2018-06-09T11:46:26.682Z,29.60
2018-06-09T11:48:56.621Z,29.50
2018-06-09T11:51:25.140Z,29.60
2018-06-09T11:53:53.641Z,29.70
2018-06-09T11:56:23.029Z,29.50
2018-06-09T11:58:51.595Z,29.30
2018-06-09T12:01:20.096Z,29.20
2018-06-09T12:03:48.610Z,30.10
2018-06-09T12:06:17.270Z,30.80
2018-06-09T12:08:45.771Z,31.20
2018-06-09T12:11:14.241Z,31.30
2018-06-09T12:13:43.550Z,31.70
2018-06-09T12:18:40.243Z,32.00
2018-06-09T12:21:08.733Z,31.50
2018-06-09T12:23:38.049Z,30.70
2018-06-09T12:26:06.564Z,29.90
2018-06-09T12:28:35.081Z,29.80
2018-06-09T12:31:03.577Z,30.70
2018-06-09T12:33:32.210Z,30.90
2018-06-09T12:36:00.780Z,30.80
2018-06-09T12:38:29.278Z,30.70
2018-06-09T12:40:58.047Z,31.00
2018-06-09T12:43:26.510Z,31.50
2018-06-09T12:45:54.992Z,31.60
2018-06-09T12:48:23.539Z,31.60
2018-06-09T12:50:52.008Z,31.20
2018-06-09T12:53:20.489Z,30.90
2018-06-09T12:55:49.066Z,30.40
2018-06-09T12:58:17.515Z,30.60
2018-06-09T13:00:46.163Z,31.00
2018-06-09T13:03:14.613Z,30.70
2018-06-09T13:05:43.311Z,30.90
2018-06-09T13:08:11.787Z,30.60
2018-06-09T13:10:40.274Z,30.00
2018-06-09T13:13:08.825Z,30.30
2018-06-09T13:15:37.371Z,30.40
2018-06-09T13:18:06.685Z,30.30
2018-06-09T13:20:35.270Z,30.00
2018-06-09T13:23:03.774Z,30.00
2018-06-09T13:25:32.446Z,30.00
2018-06-09T13:28:00.967Z,29.90
2018-06-09T13:30:48.019Z,30.20
2018-06-09T13:33:16.581Z,30.50
2018-06-09T13:35:45.206Z,30.10
2018-06-09T13:38:13.624Z,30.40
2018-06-09T13:40:42.185Z,30.50
2018-06-09T13:43:10.638Z,30.30
2018-06-09T13:45:39.141Z,29.70
2018-06-09T13:48:07.572Z,29.80
2018-06-09T13:50:36.088Z,29.60
2018-06-09T13:53:04.522Z,29.50
2018-06-09T13:55:33.222Z,28.70
2018-06-09T13:58:01.745Z,28.20
2018-06-09T14:00:30.324Z,28.30
2018-06-09T14:02:59.003Z,28.00
2018-06-09T14:05:27.640Z,28.40
2018-06-09T14:10:24.353Z,28.40
2018-06-09T14:12:52.966Z,28.50
2018-06-09T14:15:21.833Z,28.50
2018-06-09T14:17:50.459Z,28.40
2018-06-09T14:20:18.925Z,28.30
2018-06-09T14:25:15.770Z,28.50
2018-06-09T14:27:44.206Z,28.20
2018-06-09T14:30:13.082Z,28.30
2018-06-09T14:32:41.632Z,28.20
2018-06-09T14:35:10.182Z,28.10
2018-06-09T14:37:38.648Z,27.90
2018-06-09T14:40:07.505Z,27.80
2018-06-09T14:45:04.466Z,27.70
2018-06-09T14:47:33.580Z,27.60
2018-06-09T14:50:02.299Z,27.50
2018-06-09T14:52:30.962Z,27.40
2018-06-09T14:54:59.430Z,27.40
2018-06-09T14:57:28.198Z,27.40
2018-06-09T15:02:25.005Z,27.10
2018-06-09T15:04:53.758Z,27.00
2018-06-09T15:07:22.439Z,27.00
2018-06-09T15:09:50.893Z,26.90
2018-06-09T15:12:19.568Z,26.70
2018-06-09T15:14:48.149Z,26.80
2018-06-09T15:17:16.674Z,26.80
2018-06-09T15:19:45.142Z,26.80
2018-06-09T15:24:42.194Z,26.50
2018-06-09T15:27:10.703Z,26.60
2018-06-09T15:29:39.343Z,26.70
2018-06-09T15:32:07.903Z,26.80
2018-06-09T15:34:36.366Z,26.70
2018-06-09T15:37:05.026Z,26.70
2018-06-09T15:39:33.525Z,26.90
2018-06-09T15:42:02.262Z,27.10
2018-06-09T15:44:30.865Z,26.60
2018-06-09T15:46:59.400Z,26.20
2018-06-09T15:49:28.171Z,26.20
2018-06-09T15:51:56.738Z,26.40
2018-06-09T15:54:25.188Z,26.50
2018-06-09T15:56:53.849Z,26.70
2018-06-09T15:59:22.307Z,26.90
2018-06-09T16:01:50.804Z,26.90
2018-06-09T16:04:19.314Z,26.90
2018-06-09T16:06:47.809Z,26.80
2018-06-09T16:09:17.063Z,26.80
2018-06-09T16:11:45.554Z,26.80
2018-06-09T16:14:14.157Z,26.80
2018-06-09T16:16:42.706Z,26.70
2018-06-09T16:19:11.293Z,26.70
2018-06-09T16:21:39.739Z,26.70
2018-06-09T16:24:08.278Z,26.80
2018-06-09T16:26:36.872Z,26.80
2018-06-09T16:29:05.633Z,26.80
2018-06-09T16:31:34.139Z,26.80
2018-06-09T16:34:02.909Z,26.80
2018-06-09T16:36:31.616Z,26.80
2018-06-09T16:39:00.188Z,26.70
2018-06-09T16:41:28.901Z,26.70
2018-06-09T16:43:57.475Z,26.70
2018-06-09T16:46:26.018Z,26.70
2018-06-09T16:48:54.586Z,26.60
2018-06-09T16:51:23.039Z,26.60
2018-06-09T16:53:51.558Z,26.70
2018-06-09T16:56:20.133Z,26.60
2018-06-09T16:58:48.702Z,26.60
2018-06-09T17:01:17.394Z,26.40
2018-06-09T17:03:45.952Z,26.50
2018-06-09T17:08:43.189Z,26.40
2018-06-09T17:11:11.773Z,26.50
2018-06-09T17:13:40.332Z,26.40
2018-06-09T17:16:08.973Z,26.50
2018-06-09T17:18:37.369Z,26.30
2018-06-09T17:21:05.987Z,26.30
2018-06-09T17:23:34.411Z,26.40
2018-06-09T17:28:31.230Z,26.30
2018-06-09T17:30:59.686Z,26.30
2018-06-09T17:33:28.403Z,26.20
2018-06-09T17:35:56.985Z,26.10
2018-06-09T17:38:25.555Z,25.90
2018-06-09T17:40:54.009Z,25.90
2018-06-09T17:43:22.534Z,25.50
2018-06-09T17:45:50.974Z,25.40
2018-06-09T17:48:19.714Z,25.40
2018-06-09T17:50:48.301Z,25.30
2018-06-09T17:53:16.915Z,25.10
2018-06-09T17:55:45.412Z,24.60
2018-06-09T17:58:13.928Z,24.20
2018-06-09T18:00:42.726Z,24.20
2018-06-09T18:03:11.273Z,24.20
2018-06-09T18:05:39.773Z,23.70
2018-06-09T18:08:08.281Z,23.20
2018-06-09T18:10:36.837Z,23.30
2018-06-09T18:13:05.510Z,23.30
2018-06-09T18:15:34.131Z,23.20
2018-06-09T18:18:02.590Z,23.30
2018-06-09T18:20:31.035Z,23.40
2018-06-09T18:25:27.753Z,23.20
2018-06-09T18:27:56.324Z,23.20
2018-06-09T18:30:24.902Z,23.10
2018-06-09T18:32:53.418Z,23.10
2018-06-09T18:35:22.007Z,23.00
2018-06-09T18:37:50.719Z,22.80
2018-06-09T18:40:19.237Z,22.90
2018-06-09T18:42:48.639Z,22.60
2018-06-09T18:45:17.110Z,22.00
2018-06-09T18:47:45.712Z,21.50
2018-06-09T18:50:14.414Z,21.50
2018-06-09T18:52:42.882Z,21.60
2018-06-09T18:55:11.389Z,21.80
2018-06-09T18:57:40.026Z,21.50
2018-06-09T19:00:08.555Z,21.50
2018-06-09T19:02:37.045Z,21.60
2018-06-09T19:05:05.768Z,21.50
2018-06-09T19:07:34.289Z,21.70
2018-06-09T19:10:02.960Z,21.90
2018-06-09T19:12:31.665Z,21.80
2018-06-09T19:15:00.135Z,21.80
2018-06-09T19:17:28.814Z,21.70
2018-06-09T19:19:58.430Z,21.20
2018-06-09T19:22:28.378Z,20.80
2018-06-09T19:24:57.127Z,20.60
2018-06-09T19:27:25.638Z,20.60
2018-06-09T19:29:54.122Z,20.60
2018-06-09T19:32:22.694Z,20.60
2018-06-09T19:34:51.187Z,20.50
2018-06-09T19:37:19.647Z,20.60
2018-06-09T19:39:49.009Z,20.70
2018-06-09T19:42:17.713Z,20.90
2018-06-09T19:44:46.333Z,21.10
2018-06-09T19:47:14.911Z,21.20
2018-06-09T19:49:43.446Z,21.20
2018-06-09T19:52:12.069Z,21.30
2018-06-09T19:54:40.933Z,21.20
2018-06-09T19:57:10.159Z,21.30
2018-06-09T19:59:38.808Z,21.30
2018-06-09T20:02:07.345Z,21.30
2018-06-09T20:04:35.885Z,21.40
2018-06-09T20:07:04.611Z,21.40
2018-06-09T20:09:33.232Z,21.30
2018-06-09T20:12:01.708Z,21.00
2018-06-09T20:14:30.257Z,21.00
2018-06-09T20:19:26.986Z,21.00
2018-06-09T20:21:55.576Z,20.80
2018-06-09T20:24:24.208Z,20.70
2018-06-09T20:26:52.777Z,20.70
2018-06-09T20:31:49.752Z,20.90
2018-06-09T20:34:18.335Z,20.90
2018-06-09T20:39:15.039Z,21.00
2018-06-09T20:41:43.663Z,21.00
2018-06-09T20:44:12.231Z,21.10
2018-06-09T20:49:09.171Z,21.10
2018-06-09T20:51:37.828Z,21.00
2018-06-09T20:54:06.475Z,20.90
2018-06-09T20:56:34.956Z,20.90
2018-06-09T20:59:03.461Z,20.80
2018-06-09T21:01:33.041Z,20.80
2018-06-09T21:04:03.320Z,20.80
2018-06-09T21:06:31.864Z,20.70
2018-06-09T21:11:43.723Z,20.40
2018-06-09T21:14:12.202Z,20.50
2018-06-09T21:16:40.715Z,20.50
2018-06-09T21:19:09.219Z,20.60
2018-06-09T21:24:20.497Z,20.50
2018-06-09T21:26:55.458Z,20.20
2018-06-09T21:29:29.204Z,20.00
2018-06-09T21:32:02.454Z,19.90
2018-06-09T21:34:47.673Z,19.90
2018-06-09T21:37:20.702Z,20.00
2018-06-09T21:40:01.674Z,20.10
2018-06-09T21:42:34.792Z,20.10
2018-06-09T21:45:09.884Z,20.20
2018-06-09T21:47:38.448Z,20.20
2018-06-09T21:50:12.631Z,19.90
2018-06-09T21:52:41.092Z,19.60
2018-06-09T21:55:09.593Z,19.50
2018-06-09T21:57:38.047Z,19.50
2018-06-09T22:00:12.463Z,19.50
2018-06-09T22:02:40.960Z,19.60
2018-06-09T22:05:09.494Z,19.80
2018-06-09T22:07:38.000Z,19.80
2018-06-09T22:10:06.578Z,19.90
2018-06-09T22:15:05.259Z,19.90
2018-06-09T22:17:33.839Z,19.70
2018-06-09T22:20:03.175Z,19.50
2018-06-09T22:25:45.372Z,19.40
2018-06-09T22:28:30.526Z,19.50
2018-06-09T22:30:59.155Z,19.60
2018-06-09T22:36:03.395Z,19.40
2018-06-09T22:45:57.758Z,19.10
2018-06-09T22:48:26.294Z,19.00
2018-06-09T22:50:56.128Z,18.90
2018-06-09T22:53:24.660Z,18.80
2018-06-09T22:55:53.353Z,18.70
2018-06-09T22:59:07.007Z,18.70
2018-06-09T23:01:35.470Z,18.80
2018-06-09T23:04:04.288Z,18.90
2018-06-09T23:09:01.380Z,18.90
2018-06-09T23:11:33.869Z,18.80
2018-06-09T23:14:02.811Z,18.90
2018-06-09T23:16:39.572Z,19.10
2018-06-09T23:19:55.143Z,19.10
2018-06-09T23:22:23.698Z,19.20
2018-06-09T23:24:52.181Z,19.10
2018-06-09T23:27:26.219Z,18.90
2018-06-09T23:29:55.401Z,18.90
2018-06-09T23:32:23.835Z,18.90
2018-06-09T23:34:52.259Z,18.90
2018-06-09T23:37:20.965Z,19.00
2018-06-09T23:39:49.534Z,19.00
2018-06-09T23:42:18.018Z,19.10
2018-06-09T23:44:47.336Z,19.10
2018-06-09T23:47:16.251Z,19.20
2018-06-09T23:49:44.978Z,19.30
2018-06-09T23:52:13.638Z,19.40
2018-06-09T23:54:42.302Z,19.40
2018-06-09T23:57:11.843Z,19.40
2018-06-09T23:59:40.343Z,19.40
